Aviation Digital Data Service (ADDS)

Output produced by METARs form (0857 UTC 22 February 2018)
found at http://www.aviationweather.gov/adds/metars/
 
KATL 220733Z 2208/2312 16005KT P6SM BKN040 
     FM221000 15004KT 4SM BR OVC012 
     FM221200 14004KT 4SM BR OVC008 
     FM221700 19007KT P6SM BKN020 BKN050 
     FM222000 20007KT P6SM SCT035 BKN080 
     FM230000 14005KT P6SM SCT050 SCT080 
     FM230400 12004KT P6SM SCT250 
     FM231000 13004KT 4SM BR BKN020